Aviation Digital Data Service (ADDS)

Output produced by METARs form (1126 UTC 17 June 2019)
found at http://www.aviationweather.gov/metar/data/
 
METAR text: OMDW 171100Z 32015KT CAVOK 42/11 Q0999 NOSIG
Conditions at: OMDW (DUBAI AL MAKTOUM, AE) observed 1100 UTC 17 June 2019
Temperature: 42.0°C (108°F)
Dewpoint: 11.0°C (52°F) [RH = 16%]
Pressure (altimeter): 29.50 inches Hg (999.0 mb)
Winds: from the NW (320 degrees) at 17 MPH (15 knots; 7.7 m/s)
Visibility: 6 or more miles (10+ km)
Ceiling: ceiling and visibility are OK
Clouds: unknown
Weather: no significant weather observed at this time

METAR text: OMDW 171000Z 33014KT CAVOK 40/21 Q0999 NOSIG
Conditions at: OMDW (DUBAI AL MAKTOUM, AE) observed 1000 UTC 17 June 2019
Temperature: 40.0°C (104°F)
Dewpoint: 21.0°C (70°F) [RH = 34%]
Pressure (altimeter): 29.50 inches Hg (999.0 mb)
Winds: from the NNW (330 degrees) at 16 MPH (14 knots; 7.2 m/s)
Visibility: 6 or more miles (10+ km)
Ceiling: ceiling and visibility are OK
Clouds: unknown
Weather: no significant weather observed at this time

METAR text: OMDW 170900Z 34013KT CAVOK 41/21 Q1000 NOSIG
Conditions at: OMDW (DUBAI AL MAKTOUM, AE) observed 0900 UTC 17 June 2019
Temperature: 41.0°C (106°F)
Dewpoint: 21.0°C (70°F) [RH = 32%]
Pressure (altimeter): 29.53 inches Hg (1000.0 mb)
Winds: from the NNW (340 degrees) at 15 MPH (13 knots; 6.7 m/s)
Visibility: 6 or more miles (10+ km)
Ceiling: ceiling and visibility are OK
Clouds: unknown
Weather: no significant weather observed at this time

METAR text: OMDW 170800Z 33012KT CAVOK 43/17 Q1000 NOSIG
Conditions at: OMDW (DUBAI AL MAKTOUM, AE) observed 0800 UTC 17 June 2019
Temperature: 43.0°C (109°F)
Dewpoint: 17.0°C (63°F) [RH = 22%]
Pressure (altimeter): 29.53 inches Hg (1000.0 mb)
Winds: from the NNW (330 degrees) at 14 MPH (12 knots; 6.2 m/s)
Visibility: 6 or more miles (10+ km)
Ceiling: ceiling and visibility are OK
Clouds: unknown
Weather: no significant weather observed at this time

METAR text: OMDW 170700Z 30009KT CAVOK 44/08 Q1000 NOSIG
Conditions at: OMDW (DUBAI AL MAKTOUM, AE) observed 0700 UTC 17 June 2019
Temperature: 44.0°C (111°F)
Dewpoint: 8.0°C (46°F) [RH = 12%]
Pressure (altimeter): 29.53 inches Hg (1000.0 mb)
Winds: from the WNW (300 degrees) at 10 MPH (9 knots; 4.6 m/s)
Visibility: 6 or more miles (10+ km)
Ceiling: ceiling and visibility are OK
Clouds: unknown
Weather: no significant weather observed at this time

METAR text: OMDW 170600Z 20007KT 150V230 CAVOK 44/08 Q1000 NOSIG
Conditions at: OMDW (DUBAI AL MAKTOUM, AE) observed 0600 UTC 17 June 2019
Temperature: 44.0°C (111°F)
Dewpoint: 8.0°C (46°F) [RH = 12%]
Pressure (altimeter): 29.53 inches Hg (1000.0 mb)
Winds: from the SSW (200 degrees) at 8 MPH (7 knots; 3.6 m/s)
Visibility: 6 or more miles (10+ km)
Ceiling: ceiling and visibility are OK
Clouds: unknown
Weather: no significant weather observed at this time

METAR text: OMDW 170500Z 20006KT CAVOK 38/07 Q1000 NOSIG
Conditions at: OMDW (DUBAI AL MAKTOUM, AE) observed 0500 UTC 17 June 2019
Temperature: 38.0°C (100°F)
Dewpoint: 7.0°C (45°F) [RH = 15%]
Pressure (altimeter): 29.53 inches Hg (1000.0 mb)
Winds: from the SSW (200 degrees) at 7 MPH (6 knots; 3.1 m/s)
Visibility: 6 or more miles (10+ km)
Ceiling: ceiling and visibility are OK
Clouds: unknown
Weather: no significant weather observed at this time

METAR text: OMDW 170400Z 22003KT 160V290 CAVOK 35/08 Q1000 NOSIG
Conditions at: OMDW (DUBAI AL MAKTOUM, AE) observed 0400 UTC 17 June 2019
Temperature: 35.0°C (95°F)
Dewpoint: 8.0°C (46°F) [RH = 19%]
Pressure (altimeter): 29.53 inches Hg (1000.0 mb)
Winds: from the SW (220 degrees) at 3 MPH (3 knots; 1.5 m/s)
Visibility: 6 or more miles (10+ km)
Ceiling: ceiling and visibility are OK
Clouds: unknown
Weather: no significant weather observed at this time

METAR text: OMDW 170300Z 18012KT CAVOK 31/10 Q0999 NOSIG
Conditions at: OMDW (DUBAI AL MAKTOUM, AE) observed 0300 UTC 17 June 2019
Temperature: 31.0°C (88°F)
Dewpoint: 10.0°C (50°F) [RH = 27%]
Pressure (altimeter): 29.50 inches Hg (999.0 mb)
Winds: from the S (180 degrees) at 14 MPH (12 knots; 6.2 m/s)
Visibility: 6 or more miles (10+ km)
Ceiling: ceiling and visibility are OK
Clouds: unknown
Weather: no significant weather observed at this time

METAR text: OMDW 170200Z 17008KT CAVOK 28/18 Q0999 NOSIG
Conditions at: OMDW (DUBAI AL MAKTOUM, AE) observed 0200 UTC 17 June 2019
Temperature: 28.0°C (82°F)
Dewpoint: 18.0°C (64°F) [RH = 55%]
Pressure (altimeter): 29.50 inches Hg (999.0 mb)
Winds: from the S (170 degrees) at 9 MPH (8 knots; 4.1 m/s)
Visibility: 6 or more miles (10+ km)
Ceiling: ceiling and visibility are OK
Clouds: unknown
Weather: no significant weather observed at this time

METAR text: OMDW 170100Z 16003KT CAVOK 29/20 Q0999 NOSIG
Conditions at: OMDW (DUBAI AL MAKTOUM, AE) observed 0100 UTC 17 June 2019
Temperature: 29.0°C (84°F)
Dewpoint: 20.0°C (68°F) [RH = 58%]
Pressure (altimeter): 29.50 inches Hg (999.0 mb)
Winds: from the SSE (160 degrees) at 3 MPH (3 knots; 1.5 m/s)
Visibility: 6 or more miles (10+ km)
Ceiling: ceiling and visibility are OK
Clouds: unknown
Weather: no significant weather observed at this time

METAR text: OMDW 170000Z 16002KT CAVOK 30/19 Q0999 NOSIG
Conditions at: OMDW (DUBAI AL MAKTOUM, AE) observed 0000 UTC 17 June 2019
Temperature: 30.0°C (86°F)
Dewpoint: 19.0°C (66°F) [RH = 52%]
Pressure (altimeter): 29.50 inches Hg (999.0 mb)
Winds: from the SSE (160 degrees) at 2 MPH (2 knots; 1.0 m/s)
Visibility: 6 or more miles (10+ km)
Ceiling: ceiling and visibility are OK
Clouds: unknown
Weather: no significant weather observed at this time

METAR text: OMDW 162300Z 11003KT CAVOK 29/20 Q0999 NOSIG
Conditions at: OMDW (DUBAI AL MAKTOUM, AE) observed 2300 UTC 16 June 2019
Temperature: 29.0°C (84°F)
Dewpoint: 20.0°C (68°F) [RH = 58%]
Pressure (altimeter): 29.50 inches Hg (999.0 mb)
Winds: from the ESE (110 degrees) at 3 MPH (3 knots; 1.5 m/s)
Visibility: 6 or more miles (10+ km)
Ceiling: ceiling and visibility are OK
Clouds: unknown
Weather: no significant weather observed at this time

METAR text: OMDW 162200Z 09004KT 9000 NSC 28/23 Q0999 NOSIG
Conditions at: OMDW (DUBAI AL MAKTOUM, AE) observed 2200 UTC 16 June 2019
Temperature: 28.0°C (82°F)
Dewpoint: 23.0°C (73°F) [RH = 74%]
Pressure (altimeter): 29.50 inches Hg (999.0 mb)
Winds: from the E (90 degrees) at 5 MPH (4 knots; 2.1 m/s)
Visibility: 6 miles ( 9 km)
Ceiling: at least 12,000 feet AGL
Clouds: sky clear below 12,000 feet AGL
Weather: no significant weather observed at this time

METAR text: OMDW 162100Z 10005KT 8000 NSC 29/25 Q0999 NOSIG
Conditions at: OMDW (DUBAI AL MAKTOUM, AE) observed 2100 UTC 16 June 2019
Temperature: 29.0°C (84°F)
Dewpoint: 25.0°C (77°F) [RH = 79%]
Pressure (altimeter): 29.50 inches Hg (999.0 mb)
Winds: from the E (100 degrees) at 6 MPH (5 knots; 2.6 m/s)
Visibility: 5 miles ( 8 km)
Ceiling: at least 12,000 feet AGL
Clouds: sky clear below 12,000 feet AGL
Weather: no significant weather observed at this time

METAR text: OMDW 162000Z 10003KT CAVOK 31/26 Q1000 NOSIG
Conditions at: OMDW (DUBAI AL MAKTOUM, AE) observed 2000 UTC 16 June 2019
Temperature: 31.0°C (88°F)
Dewpoint: 26.0°C (79°F) [RH = 75%]
Pressure (altimeter): 29.53 inches Hg (1000.0 mb)
Winds: from the E (100 degrees) at 3 MPH (3 knots; 1.5 m/s)
Visibility: 6 or more miles (10+ km)
Ceiling: ceiling and visibility are OK
Clouds: unknown
Weather: no significant weather observed at this time

METAR text: OMDW 161900Z 07003KT CAVOK 31/25 Q1000 NOSIG
Conditions at: OMDW (DUBAI AL MAKTOUM, AE) observed 1900 UTC 16 June 2019
Temperature: 31.0°C (88°F)
Dewpoint: 25.0°C (77°F) [RH = 71%]
Pressure (altimeter): 29.53 inches Hg (1000.0 mb)
Winds: from the ENE (70 degrees) at 3 MPH (3 knots; 1.5 m/s)
Visibility: 6 or more miles (10+ km)
Ceiling: ceiling and visibility are OK
Clouds: unknown
Weather: no significant weather observed at this time

METAR text: OMDW 161800Z 04004KT CAVOK 32/26 Q1000 NOSIG
Conditions at: OMDW (DUBAI AL MAKTOUM, AE) observed 1800 UTC 16 June 2019
Temperature: 32.0°C (90°F)
Dewpoint: 26.0°C (79°F) [RH = 71%]
Pressure (altimeter): 29.53 inches Hg (1000.0 mb)
Winds: from the NE (40 degrees) at 5 MPH (4 knots; 2.1 m/s)
Visibility: 6 or more miles (10+ km)
Ceiling: ceiling and visibility are OK
Clouds: unknown
Weather: no significant weather observed at this time

METAR text: OMDW 161700Z 36006KT CAVOK 33/26 Q1000 NOSIG
Conditions at: OMDW (DUBAI AL MAKTOUM, AE) observed 1700 UTC 16 June 2019
Temperature: 33.0°C (91°F)
Dewpoint: 26.0°C (79°F) [RH = 67%]
Pressure (altimeter): 29.53 inches Hg (1000.0 mb)
Winds: from the N (360 degrees) at 7 MPH (6 knots; 3.1 m/s)
Visibility: 6 or more miles (10+ km)
Ceiling: ceiling and visibility are OK
Clouds: unknown
Weather: no significant weather observed at this time

METAR text: OMDW 161600Z 32003KT CAVOK 35/25 Q0999 NOSIG
Conditions at: OMDW (DUBAI AL MAKTOUM, AE) observed 1600 UTC 16 June 2019
Temperature: 35.0°C (95°F)
Dewpoint: 25.0°C (77°F) [RH = 56%]
Pressure (altimeter): 29.50 inches Hg (999.0 mb)
Winds: from the NW (320 degrees) at 3 MPH (3 knots; 1.5 m/s)
Visibility: 6 or more miles (10+ km)
Ceiling: ceiling and visibility are OK
Clouds: unknown
Weather: no significant weather observed at this time

METAR text: OMDW 161500Z 34010KT CAVOK 36/24 Q0999 NOSIG
Conditions at: OMDW (DUBAI AL MAKTOUM, AE) observed 1500 UTC 16 June 2019
Temperature: 36.0°C (97°F)
Dewpoint: 24.0°C (75°F) [RH = 50%]
Pressure (altimeter): 29.50 inches Hg (999.0 mb)
Winds: from the NNW (340 degrees) at 12 MPH (10 knots; 5.1 m/s)
Visibility: 6 or more miles (10+ km)
Ceiling: ceiling and visibility are OK
Clouds: unknown
Weather: no significant weather observed at this time

METAR text: OMDW 161400Z 33017KT 9000 3000NE DU NSC 37/21 Q0998 NOSIG
Conditions at: OMDW (DUBAI AL MAKTOUM, AE) observed 1400 UTC 16 June 2019
Temperature: 37.0°C (99°F)
Dewpoint: 21.0°C (70°F) [RH = 40%]
Pressure (altimeter): 29.47 inches Hg (998.0 mb)
Winds: from the NNW (330 degrees) at 20 MPH (17 knots; 8.7 m/s)
Visibility: 6 miles ( 9 km)
Ceiling: at least 12,000 feet AGL
Clouds: sky clear below 12,000 feet AGL
Weather: DU  (widespread dust)

METAR text: OMDW 161300Z 33016KT 9000 3500NE DU NSC 38/21 Q0998 NOSIG
Conditions at: OMDW (DUBAI AL MAKTOUM, AE) observed 1300 UTC 16 June 2019
Temperature: 38.0°C (100°F)
Dewpoint: 21.0°C (70°F) [RH = 38%]
Pressure (altimeter): 29.47 inches Hg (998.0 mb)
Winds: from the NNW (330 degrees) at 18 MPH (16 knots; 8.2 m/s)
Visibility: 6 miles ( 9 km)
Ceiling: at least 12,000 feet AGL
Clouds: sky clear below 12,000 feet AGL
Weather: DU  (widespread dust)

METAR text: OMDW 161200Z 33016KT CAVOK 39/21 Q0998 NOSIG
Conditions at: OMDW (DUBAI AL MAKTOUM, AE) observed 1200 UTC 16 June 2019
Temperature: 39.0°C (102°F)
Dewpoint: 21.0°C (70°F) [RH = 36%]
Pressure (altimeter): 29.47 inches Hg (998.0 mb)
Winds: from the NNW (330 degrees) at 18 MPH (16 knots; 8.2 m/s)
Visibility: 6 or more miles (10+ km)
Ceiling: ceiling and visibility are OK
Clouds: unknown
Weather: no significant weather observed at this time

METAR text: OMDW 161100Z 32014KT CAVOK 42/21 Q0998 NOSIG
Conditions at: OMDW (DUBAI AL MAKTOUM, AE) observed 1100 UTC 16 June 2019
Temperature: 42.0°C (108°F)
Dewpoint: 21.0°C (70°F) [RH = 30%]
Pressure (altimeter): 29.47 inches Hg (998.0 mb)
Winds: from the NW (320 degrees) at 16 MPH (14 knots; 7.2 m/s)
Visibility: 6 or more miles (10+ km)
Ceiling: ceiling and visibility are OK
Clouds: unknown
Weather: no significant weather observed at this time

METAR text: OMDW 161000Z 33012KT 8000 NSC 41/25 Q0999 NOSIG
Conditions at: OMDW (DUBAI AL MAKTOUM, AE) observed 1000 UTC 16 June 2019
Temperature: 41.0°C (106°F)
Dewpoint: 25.0°C (77°F) [RH = 41%]
Pressure (altimeter): 29.50 inches Hg (999.0 mb)
Winds: from the NNW (330 degrees) at 14 MPH (12 knots; 6.2 m/s)
Visibility: 5 miles ( 8 km)
Ceiling: at least 12,000 feet AGL
Clouds: sky clear below 12,000 feet AGL
Weather: no significant weather observed at this time

METAR text: OMDW 160900Z 34007KT 290V010 CAVOK 44/20 Q0999 NOSIG
Conditions at: OMDW (DUBAI AL MAKTOUM, AE) observed 0900 UTC 16 June 2019
Temperature: 44.0°C (111°F)
Dewpoint: 20.0°C (68°F) [RH = 26%]
Pressure (altimeter): 29.50 inches Hg (999.0 mb)
Winds: from the NNW (340 degrees) at 8 MPH (7 knots; 3.6 m/s)
Visibility: 6 or more miles (10+ km)
Ceiling: ceiling and visibility are OK
Clouds: unknown
Weather: no significant weather observed at this time

METAR text: OMDW 160800Z 36004KT 300V080 CAVOK 45/07 Q1000 NOSIG
Conditions at: OMDW (DUBAI AL MAKTOUM, AE) observed 0800 UTC 16 June 2019
Temperature: 45.0°C (113°F)
Dewpoint: 7.0°C (45°F) [RH = 10%]
Pressure (altimeter): 29.53 inches Hg (1000.0 mb)
Winds: from the N (360 degrees) at 5 MPH (4 knots; 2.1 m/s)
Visibility: 6 or more miles (10+ km)
Ceiling: ceiling and visibility are OK
Clouds: unknown
Weather: no significant weather observed at this time

METAR text: OMDW 160700Z 34003KT 250V030 8000 NSC 43/07 Q1000 NOSIG
Conditions at: OMDW (DUBAI AL MAKTOUM, AE) observed 0700 UTC 16 June 2019
Temperature: 43.0°C (109°F)
Dewpoint: 7.0°C (45°F) [RH = 12%]
Pressure (altimeter): 29.53 inches Hg (1000.0 mb)
Winds: from the NNW (340 degrees) at 3 MPH (3 knots; 1.5 m/s)
Visibility: 5 miles ( 8 km)
Ceiling: at least 12,000 feet AGL
Clouds: sky clear below 12,000 feet AGL
Weather: no significant weather observed at this time

METAR text: OMDW 160600Z 31003KT 250V340 7000 NSC 40/12 Q1000 NOSIG
Conditions at: OMDW (DUBAI AL MAKTOUM, AE) observed 0600 UTC 16 June 2019
Temperature: 40.0°C (104°F)
Dewpoint: 12.0°C (54°F) [RH = 19%]
Pressure (altimeter): 29.53 inches Hg (1000.0 mb)
Winds: from the NW (310 degrees) at 3 MPH (3 knots; 1.5 m/s)
Visibility: 4 miles ( 7 km)
Ceiling: at least 12,000 feet AGL
Clouds: sky clear below 12,000 feet AGL
Weather: no significant weather observed at this time

METAR text: OMDW 160500Z 32004KT 270V350 7000 NSC 36/16 Q1000 NOSIG
Conditions at: OMDW (DUBAI AL MAKTOUM, AE) observed 0500 UTC 16 June 2019
Temperature: 36.0°C (97°F)
Dewpoint: 16.0°C (61°F) [RH = 31%]
Pressure (altimeter): 29.53 inches Hg (1000.0 mb)
Winds: from the NW (320 degrees) at 5 MPH (4 knots; 2.1 m/s)
Visibility: 4 miles ( 7 km)
Ceiling: at least 12,000 feet AGL
Clouds: sky clear below 12,000 feet AGL
Weather: no significant weather observed at this time

METAR text: OMDW 160400Z 34003KT 300V030 8000 NSC 32/17 Q1000 NOSIG
Conditions at: OMDW (DUBAI AL MAKTOUM, AE) observed 0400 UTC 16 June 2019
Temperature: 32.0°C (90°F)
Dewpoint: 17.0°C (63°F) [RH = 41%]
Pressure (altimeter): 29.53 inches Hg (1000.0 mb)
Winds: from the NNW (340 degrees) at 3 MPH (3 knots; 1.5 m/s)
Visibility: 5 miles ( 8 km)
Ceiling: at least 12,000 feet AGL
Clouds: sky clear below 12,000 feet AGL
Weather: no significant weather observed at this time

METAR text: OMDW 160300Z 13010KT 8000 NSC 29/16 Q1000 NOSIG
Conditions at: OMDW (DUBAI AL MAKTOUM, AE) observed 0300 UTC 16 June 2019
Temperature: 29.0°C (84°F)
Dewpoint: 16.0°C (61°F) [RH = 45%]
Pressure (altimeter): 29.53 inches Hg (1000.0 mb)
Winds: from the SE (130 degrees) at 12 MPH (10 knots; 5.1 m/s)
Visibility: 5 miles ( 8 km)
Ceiling: at least 12,000 feet AGL
Clouds: sky clear below 12,000 feet AGL
Weather: no significant weather observed at this time

METAR text: OMDW 160200Z 14004KT 100V200 7000 NSC 27/15 Q0999 NOSIG
Conditions at: OMDW (DUBAI AL MAKTOUM, AE) observed 0200 UTC 16 June 2019
Temperature: 27.0°C (81°F)
Dewpoint: 15.0°C (59°F) [RH = 48%]
Pressure (altimeter): 29.50 inches Hg (999.0 mb)
Winds: from the SE (140 degrees) at 5 MPH (4 knots; 2.1 m/s)
Visibility: 4 miles ( 7 km)
Ceiling: at least 12,000 feet AGL
Clouds: sky clear below 12,000 feet AGL
Weather: no significant weather observed at this time

METAR text: OMDW 160100Z VRB02KT CAVOK 30/18 Q0999 NOSIG
Conditions at: OMDW (DUBAI AL MAKTOUM, AE) observed 0100 UTC 16 June 2019
Temperature: 30.0°C (86°F)
Dewpoint: 18.0°C (64°F) [RH = 49%]
Pressure (altimeter): 29.50 inches Hg (999.0 mb)
Winds: variable direction winds at 2 MPH (2 knots; 1.0 m/s)
Visibility: 6 or more miles (10+ km)
Ceiling: ceiling and visibility are OK
Clouds: unknown
Weather: no significant weather observed at this time

METAR text: OMDW 160000Z 19003KT 150V280 CAVOK 30/16 Q0998 NOSIG
Conditions at: OMDW (DUBAI AL MAKTOUM, AE) observed 0000 UTC 16 June 2019
Temperature: 30.0°C (86°F)
Dewpoint: 16.0°C (61°F) [RH = 43%]
Pressure (altimeter): 29.47 inches Hg (998.0 mb)
Winds: from the S (190 degrees) at 3 MPH (3 knots; 1.5 m/s)
Visibility: 6 or more miles (10+ km)
Ceiling: ceiling and visibility are OK
Clouds: unknown
Weather: no significant weather observed at this time

Forecast for: OMDW (DUBAI AL MAKTOUM, AE)
Text: TAF OMDW 171101Z 1712/1818 32015KT 8000 NSC
Forecast period: 1200 to 1500 UTC 17 June 2019
Forecast type: FROM: standard forecast or significant change
Winds: from the NW (320 degrees) at 17 MPH (15 knots; 7.7 m/s)
Visibility: 5 miles (8 km)
Ceiling: unknown
Clouds: missing
Weather: no significant weather forecast for this period
Text: PROB30
Forecast period: 1200 to 1400 UTC 17 June 2019
Forecast type: TEMPORARY: The following changes expected for less than half the time period
Visibility: 2.49 miles (4.01 km)
Ceiling: unknown
Clouds: missing
Weather: DU  (widespread dust)
Text: TEMPO 1712/1714 4000 DU
Forecast period: 1500 UTC 17 June 2019 to 0600 UTC 18 June 2019
Forecast type: BECOMING: Conditions expected to become as follows by 1700 UTC 17 June 2019
Winds: from the S (180 degrees) at 6 MPH (5 knots; 2.6 m/s)
Visibility: 5 miles (8 km)
Ceiling: unknown
Clouds: missing
Weather: no significant weather forecast for this period
Text: BECMG 1715/1717 18005KT
Forecast period: 1800 to 2200 UTC 17 June 2019
Forecast type: PROBABLE: 30 percent likelihood of the following during this time
Visibility: 1.86 miles (2.99 km)
Ceiling: 500 feet AGL
Clouds: broken clouds at 500 feet AGL
Weather: BR  (mist)
Text: PROB30 1718/1722 3000 BR BKN005
Forecast period: 2200 UTC 17 June 2019 to 0400 UTC 18 June 2019
Forecast type: PROBABLE: 30 percent likelihood of the following during this time
Visibility: 0.06 miles (0.10 km)
Ceiling: unknown
Clouds: missing
Weather: FG  (fog)
Text: PROB30 1722/1804 0100 FG
Forecast period: 0600 to 1800 UTC 18 June 2019
Forecast type: BECOMING: Conditions expected to become as follows by 0800 UTC 18 June 2019
Winds: from the NNW (330 degrees) at 16 MPH (14 knots; 7.2 m/s)
Visibility: 5 miles (8 km)
Ceiling: unknown
Clouds: missing
Weather: no significant weather forecast for this period